Time,TemperatureF,DewpointF,PressureIn,WindDirection,WindDirectionDegrees,WindSpeedMPH,WindSpeedGustMPH,Humidity,HourlyPrecipIn,Conditions,Clouds,dailyrainin,SoftwareType,DateUTC
2013-01-22 00:00:00,54.2,45.7,30.18,East,85,2.0,8.0,73,0.00,,,0.00,Wunderground v.1.15,2013-01-22 06:00:00,
2013-01-22 00:06:00,54.1,46.0,30.18,ENE,74,2.0,8.0,74,0.00,,,0.00,Wunderground v.1.15,2013-01-22 06:06:00,
2013-01-22 00:12:00,53.9,45.8,30.18,East,83,2.0,5.0,74,0.00,,,0.00,Wunderground v.1.15,2013-01-22 06:12:00,
2013-01-22 00:18:00,53.7,45.6,30.18,East,90,2.0,5.0,74,0.00,,,0.00,Wunderground v.1.15,2013-01-22 06:18:00,
2013-01-22 00:24:00,53.6,45.9,30.17,East,96,2.0,5.0,75,0.00,,,0.00,Wunderground v.1.15,2013-01-22 06:24:00,
2013-01-22 00:30:00,53.5,45.8,30.17,ENE,61,2.0,5.0,75,0.00,,,0.00,Wunderground v.1.15,2013-01-22 06:30:00,
2013-01-22 00:36:00,53.4,45.7,30.17,East,79,2.0,5.0,75,0.00,,,0.00,Wunderground v.1.15,2013-01-22 06:36:00,
2013-01-22 00:42:00,53.3,45.9,30.17,East,80,1.0,5.0,76,0.00,,,0.00,Wunderground v.1.15,2013-01-22 06:42:00,
2013-01-22 00:48:00,53.3,45.9,30.17,ENE,72,2.0,5.0,76,0.00,,,0.00,Wunderground v.1.15,2013-01-22 06:48:00,
2013-01-22 00:54:00,53.3,45.9,30.18,ENE,78,2.0,5.0,76,0.00,,,0.00,Wunderground v.1.15,2013-01-22 06:54:00,
2013-01-22 01:00:00,53.3,45.9,30.17,East,101,2.0,2.0,76,0.00,,,0.00,Wunderground v.1.15,2013-01-22 07:00:00,
2013-01-22 01:06:00,53.4,46.0,30.17,ENE,75,2.0,5.0,76,0.00,,,0.00,Wunderground v.1.15,2013-01-22 07:06:00,
2013-01-22 01:12:00,53.4,46.0,30.17,ENE,65,2.0,5.0,76,0.00,,,0.00,Wunderground v.1.15,2013-01-22 07:12:00,
2013-01-22 01:17:00,53.3,45.9,30.17,East,91,2.0,5.0,76,0.00,,,0.00,Wunderground v.1.15,2013-01-22 07:17:00,
2013-01-22 01:24:00,53.1,45.7,30.17,East,82,1.0,5.0,76,0.00,,,0.00,Wunderground v.1.15,2013-01-22 07:24:00,
2013-01-22 01:30:00,52.9,45.5,30.17,ESE,117,1.0,1.0,76,0.00,,,0.00,Wunderground v.1.15,2013-01-22 07:30:00,
2013-01-22 01:35:00,52.6,45.2,30.17,ENE,70,1.0,5.0,76,0.00,,,0.00,Wunderground v.1.15,2013-01-22 07:35:00,
2013-01-22 01:42:00,52.6,45.2,30.17,ENE,68,2.0,5.0,76,0.00,,,0.00,Wunderground v.1.15,2013-01-22 07:42:00,
2013-01-22 01:48:00,52.6,45.2,30.17,ENE,57,2.0,5.0,76,0.00,,,0.00,Wunderground v.1.15,2013-01-22 07:48:00,
2013-01-22 01:54:00,52.4,45.4,30.17,ENE,63,2.0,5.0,77,0.00,,,0.00,Wunderground v.1.15,2013-01-22 07:54:00,
2013-01-22 01:59:00,52.4,45.4,30.17,ENE,72,2.0,5.0,77,0.00,,,0.00,Wunderground v.1.15,2013-01-22 07:59:00,
2013-01-22 02:06:00,52.5,45.5,30.18,ENE,63,2.0,5.0,77,0.00,,,0.00,Wunderground v.1.15,2013-01-22 08:06:00,
2013-01-22 02:12:00,52.4,45.4,30.18,NE,43,2.0,5.0,77,0.00,,,0.00,Wunderground v.1.15,2013-01-22 08:12:00,
2013-01-22 02:18:00,52.2,45.2,30.18,NE,43,2.0,5.0,77,0.00,,,0.00,Wunderground v.1.15,2013-01-22 08:18:00,
2013-01-22 02:24:00,52.0,45.0,30.18,NE,46,2.0,5.0,77,0.00,,,0.00,Wunderground v.1.15,2013-01-22 08:24:00,
2013-01-22 02:30:00,51.9,44.9,30.18,ENE,65,2.0,5.0,77,0.00,,,0.00,Wunderground v.1.15,2013-01-22 08:30:00,
2013-01-22 02:36:00,51.8,44.8,30.18,NE,50,1.0,5.0,77,0.00,,,0.00,Wunderground v.1.15,2013-01-22 08:36:00,
2013-01-22 02:41:00,51.7,44.7,30.18,NE,46,1.0,5.0,77,0.00,,,0.00,Wunderground v.1.15,2013-01-22 08:41:00,
2013-01-22 02:48:00,51.7,44.7,30.18,ENE,69,2.0,5.0,77,0.00,,,0.00,Wunderground v.1.15,2013-01-22 08:48:00,
2013-01-22 02:54:00,51.7,45.1,30.18,ENE,64,2.0,5.0,78,0.00,,,0.00,Wunderground v.1.15,2013-01-22 08:54:00,
2013-01-22 03:00:00,51.7,44.7,30.18,ENE,77,2.0,2.0,77,0.00,,,0.00,Wunderground v.1.15,2013-01-22 09:00:00,
2013-01-22 03:06:00,51.6,44.6,30.18,ENE,75,2.0,4.0,77,0.00,,,0.00,Wunderground v.1.15,2013-01-22 09:06:00,
2013-01-22 03:12:00,51.5,44.9,30.18,ENE,63,2.0,4.0,78,0.00,,,0.00,Wunderground v.1.15,2013-01-22 09:12:00,
2013-01-22 03:18:00,51.4,44.4,30.18,NE,53,2.0,4.0,77,0.00,,,0.00,Wunderground v.1.15,2013-01-22 09:18:00,
2013-01-22 03:24:00,51.4,44.4,30.18,NE,49,3.0,4.0,77,0.00,,,0.00,Wunderground v.1.15,2013-01-22 09:24:00,
2013-01-22 03:30:00,51.1,44.1,30.18,ENE,72,4.0,4.0,77,0.00,,,0.00,Wunderground v.1.15,2013-01-22 09:30:00,
2013-01-22 03:36:00,50.9,43.9,30.18,North,9,5.0,7.0,77,0.00,,,0.00,Wunderground v.1.15,2013-01-22 09:36:00,
2013-01-22 03:42:00,50.8,43.8,30.19,NE,44,5.0,5.0,77,0.00,,,0.00,Wunderground v.1.15,2013-01-22 09:42:00,
2013-01-22 03:48:00,50.8,43.8,30.19,ENE,57,4.0,5.0,77,0.00,,,0.00,Wunderground v.1.15,2013-01-22 09:48:00,
2013-01-22 03:54:00,50.9,43.9,30.19,ENE,77,4.0,5.0,77,0.00,,,0.00,Wunderground v.1.15,2013-01-22 09:54:00,
2013-01-22 04:00:00,51.0,44.0,30.19,NE,53,3.0,6.0,77,0.00,,,0.00,Wunderground v.1.15,2013-01-22 10:00:00,
2013-01-22 04:06:00,51.1,44.1,30.19,ENE,65,4.0,9.0,77,0.00,,,0.00,Wunderground v.1.15,2013-01-22 10:06:00,
2013-01-22 04:11:00,51.2,44.2,30.19,NE,43,4.0,6.0,77,0.00,,,0.00,Wunderground v.1.15,2013-01-22 10:11:00,
2013-01-22 04:18:00,51.4,44.4,30.20,ENE,68,4.0,9.0,77,0.00,,,0.00,Wunderground v.1.15,2013-01-22 10:18:00,
2013-01-22 04:24:00,51.5,44.2,30.20,NE,40,5.0,9.0,76,0.00,,,0.00,Wunderground v.1.15,2013-01-22 10:24:00,
2013-01-22 04:30:00,51.6,44.3,30.20,ENE,75,5.0,9.0,76,0.00,,,0.00,Wunderground v.1.15,2013-01-22 10:30:00,
2013-01-22 04:36:00,51.7,44.4,30.20,East,86,4.0,9.0,76,0.00,,,0.00,Wunderground v.1.15,2013-01-22 10:36:00,
2013-01-22 04:42:00,51.6,44.3,30.20,ENE,58,4.0,9.0,76,0.00,,,0.00,Wunderground v.1.15,2013-01-22 10:42:00,
2013-01-22 04:50:00,51.5,44.2,30.20,ENE,60,4.0,9.0,76,0.00,,,0.00,Wunderground v.1.15,2013-01-22 10:50:00,
2013-01-22 04:55:00,51.4,44.1,30.20,East,89,4.0,9.0,76,0.00,,,0.00,Wunderground v.1.15,2013-01-22 10:55:00,
2013-01-22 05:02:00,51.3,44.0,30.20,ENE,62,4.0,9.0,76,0.00,,,0.00,Wunderground v.1.15,2013-01-22 11:02:00,
2013-01-22 05:08:00,51.2,43.9,30.21,NE,44,4.0,9.0,76,0.00,,,0.00,Wunderground v.1.15,2013-01-22 11:08:00,
2013-01-22 05:14:00,51.0,44.0,30.21,ENE,73,3.0,9.0,77,0.00,,,0.00,Wunderground v.1.15,2013-01-22 11:14:00,
2013-01-22 05:20:00,50.8,43.8,30.22,North,8,3.0,3.0,77,0.00,,,0.00,Wunderground v.1.15,2013-01-22 11:20:00,
2013-01-22 05:26:00,50.5,43.6,30.22,ENE,68,4.0,9.0,77,0.00,,,0.00,Wunderground v.1.15,2013-01-22 11:26:00,
2013-01-22 05:32:00,50.3,43.4,30.22,NE,53,3.0,4.0,77,0.00,,,0.00,Wunderground v.1.15,2013-01-22 11:32:00,
2013-01-22 05:38:00,50.3,43.4,30.22,NE,38,4.0,9.0,77,0.00,,,0.00,Wunderground v.1.15,2013-01-22 11:38:00,
2013-01-22 05:44:00,50.4,43.5,30.22,NE,49,4.0,9.0,77,0.00,,,0.00,Wunderground v.1.15,2013-01-22 11:44:00,
2013-01-22 05:50:00,50.5,43.6,30.23,NE,44,5.0,5.0,77,0.00,,,0.00,Wunderground v.1.15,2013-01-22 11:50:00,
2013-01-22 05:56:00,50.4,43.5,30.23,NNE,32,4.0,9.0,77,0.00,,,0.00,Wunderground v.1.15,2013-01-22 11:56:00,
2013-01-22 06:02:00,50.4,43.5,30.23,NE,55,5.0,10.0,77,0.00,,,0.00,Wunderground v.1.15,2013-01-22 12:02:00,
2013-01-22 06:08:00,50.4,43.5,30.24,ENE,61,6.0,10.0,77,0.00,,,0.00,Wunderground v.1.15,2013-01-22 12:08:00,
2013-01-22 06:14:00,50.4,43.5,30.24,ENE,60,4.0,10.0,77,0.00,,,0.00,Wunderground v.1.15,2013-01-22 12:14:00,
2013-01-22 06:20:00,50.5,43.6,30.24,NE,45,4.0,4.0,77,0.00,,,0.00,Wunderground v.1.15,2013-01-22 12:20:00,
2013-01-22 06:26:00,50.6,43.7,30.24,NE,50,4.0,10.0,77,0.00,,,0.00,Wunderground v.1.15,2013-01-22 12:26:00,
2013-01-22 06:32:00,50.7,43.8,30.25,NNE,32,4.0,5.0,77,0.00,,,0.00,Wunderground v.1.15,2013-01-22 12:32:00,
2013-01-22 06:38:00,50.8,43.8,30.25,NE,41,4.0,10.0,77,0.00,,,0.00,Wunderground v.1.15,2013-01-22 12:38:00,
2013-01-22 06:43:00,50.8,43.8,30.25,ENE,65,3.0,10.0,77,0.00,,,0.00,Wunderground v.1.15,2013-01-22 12:43:00,
2013-01-22 06:50:00,50.9,43.6,30.25,NE,43,2.0,10.0,76,0.00,,,0.00,Wunderground v.1.15,2013-01-22 12:50:00,
2013-01-22 06:56:00,51.0,43.7,30.25,ENE,62,2.0,10.0,76,0.00,,,0.00,Wunderground v.1.15,2013-01-22 12:56:00,
2013-01-22 07:02:00,51.0,43.7,30.25,East,82,2.0,10.0,76,0.00,,,0.00,Wunderground v.1.15,2013-01-22 13:02:00,
2013-01-22 07:08:00,51.1,43.8,30.26,ENE,57,2.0,10.0,76,0.00,,,0.00,Wunderground v.1.15,2013-01-22 13:08:00,
2013-01-22 07:14:00,51.2,43.9,30.26,ENE,62,2.0,9.0,76,0.00,,,0.00,Wunderground v.1.15,2013-01-22 13:14:00,
2013-01-22 07:20:00,51.2,43.9,30.26,NNE,30,1.0,9.0,76,0.00,,,0.00,Wunderground v.1.15,2013-01-22 13:20:00,
2013-01-22 07:26:00,51.2,43.9,30.26,NNE,26,1.0,9.0,76,0.00,,,0.00,Wunderground v.1.15,2013-01-22 13:26:00,
2013-01-22 07:32:00,51.2,43.9,30.26,NE,34,1.0,9.0,76,0.00,,,0.00,Wunderground v.1.15,2013-01-22 13:32:00,
2013-01-22 07:38:00,51.1,43.8,30.26,NNE,30,2.0,9.0,76,0.00,,,0.00,Wunderground v.1.15,2013-01-22 13:38:00,
2013-01-22 07:44:00,51.1,43.8,30.26,NE,49,3.0,9.0,76,0.00,,,0.00,Wunderground v.1.15,2013-01-22 13:44:00,
2013-01-22 07:50:00,51.1,43.8,30.26,ENE,70,2.0,9.0,76,0.00,,,0.00,Wunderground v.1.15,2013-01-22 13:50:00,
2013-01-22 07:56:00,51.1,43.8,30.26,NE,46,2.0,9.0,76,0.00,,,0.00,Wunderground v.1.15,2013-01-22 13:56:00,
2013-01-22 08:02:00,51.0,43.7,30.25,NNE,27,1.0,5.0,76,0.00,,,0.00,Wunderground v.1.15,2013-01-22 14:02:00,
2013-01-22 08:08:00,50.9,43.6,30.25,NNE,26,1.0,5.0,76,0.00,,,0.00,Wunderground v.1.15,2013-01-22 14:08:00,
2013-01-22 08:14:00,50.8,43.8,30.25,NNE,32,0.0,5.0,77,0.00,,,0.00,Wunderground v.1.15,2013-01-22 14:14:00,
2013-01-22 08:20:00,50.7,43.8,30.25,NNE,32,0.0,5.0,77,0.00,,,0.00,Wunderground v.1.15,2013-01-22 14:20:00,
2013-01-22 08:26:00,50.6,43.7,30.25,NNE,32,0.0,5.0,77,0.00,,,0.00,Wunderground v.1.15,2013-01-22 14:26:00,
2013-01-22 08:32:00,50.7,43.8,30.25,NW,313,0.0,5.0,77,0.00,,,0.00,Wunderground v.1.15,2013-01-22 14:32:00,
2013-01-22 08:38:00,51.3,44.3,30.26,NNW,342,0.0,5.0,77,0.00,,,0.00,Wunderground v.1.15,2013-01-22 14:38:00,
2013-01-22 08:44:00,52.1,44.8,30.26,SE,141,0.0,5.0,76,0.00,,,0.00,Wunderground v.1.15,2013-01-22 14:44:00,
2013-01-22 08:49:00,52.9,44.8,30.26,ENE,68,0.0,5.0,74,0.00,,,0.00,Wunderground v.1.15,2013-01-22 14:49:00,
2013-01-22 08:56:00,53.6,45.2,30.26,NE,45,1.0,5.0,73,0.00,,,0.00,Wunderground v.1.15,2013-01-22 14:56:00,
2013-01-22 09:02:00,54.2,45.4,30.26,East,90,1.0,5.0,72,0.00,,,0.00,Wunderground v.1.15,2013-01-22 15:02:00,
2013-01-22 09:08:00,54.5,45.3,30.26,ENE,70,2.0,5.0,71,0.00,,,0.00,Wunderground v.1.15,2013-01-22 15:08:00,
2013-01-22 09:14:00,55.0,45.8,30.26,ESE,121,3.0,4.0,71,0.00,,,0.00,Wunderground v.1.15,2013-01-22 15:14:00,
2013-01-22 09:20:00,55.5,45.9,30.27,ENE,63,2.0,4.0,70,0.00,,,0.00,Wunderground v.1.15,2013-01-22 15:20:00,
2013-01-22 09:26:00,55.9,45.9,30.27,ESE,117,2.0,4.0,69,0.00,,,0.00,Wunderground v.1.15,2013-01-22 15:26:00,
2013-01-22 09:33:00,56.3,46.3,30.27,ENE,72,2.0,4.0,69,0.00,,,0.00,Wunderground v.1.15,2013-01-22 15:33:00,
2013-01-22 09:40:00,56.5,46.4,30.27,ENE,70,2.0,2.0,69,0.00,,,0.00,Wunderground v.1.15,2013-01-22 15:40:00,
2013-01-22 09:46:00,57.1,47.0,30.28,ESE,103,2.0,4.0,69,0.00,,,0.00,Wunderground v.1.15,2013-01-22 15:46:00,
2013-01-22 09:52:00,58.0,47.5,30.28,East,86,2.0,4.0,68,0.00,,,0.00,Wunderground v.1.15,2013-01-22 15:52:00,
2013-01-22 09:58:00,58.3,47.8,30.28,East,86,2.0,4.0,68,0.00,,,0.00,Wunderground v.1.15,2013-01-22 15:58:00,
2013-01-22 10:04:00,58.8,48.3,30.29,SE,142,2.0,5.0,68,0.00,,,0.00,Wunderground v.1.15,2013-01-22 16:04:00,
2013-01-22 10:10:00,59.1,48.5,30.29,ENE,66,2.0,2.0,68,0.00,,,0.00,Wunderground v.1.15,2013-01-22 16:10:00,
2013-01-22 10:16:00,59.5,48.9,30.29,ENE,60,2.0,5.0,68,0.00,,,0.00,Wunderground v.1.15,2013-01-22 16:16:00,
2013-01-22 10:22:00,60.2,49.2,30.29,SE,135,2.0,5.0,67,0.00,,,0.00,Wunderground v.1.15,2013-01-22 16:22:00,
2013-01-22 10:28:00,60.3,49.7,30.29,SE,142,3.0,5.0,68,0.00,,,0.00,Wunderground v.1.15,2013-01-22 16:28:00,
2013-01-22 10:34:00,61.1,50.1,30.29,SE,134,2.0,6.0,67,0.00,,,0.00,Wunderground v.1.15,2013-01-22 16:34:00,
2013-01-22 10:40:00,61.7,50.2,30.29,ESE,105,2.0,5.0,66,0.00,,,0.00,Wunderground v.1.15,2013-01-22 16:40:00,
2013-01-22 10:45:00,62.2,51.1,30.29,SSE,155,2.0,5.0,67,0.00,,,0.00,Wunderground v.1.15,2013-01-22 16:45:00,
2013-01-22 10:52:00,62.8,51.3,30.29,SE,128,2.0,5.0,66,0.00,,,0.00,Wunderground v.1.15,2013-01-22 16:52:00,
2013-01-22 10:58:00,64.2,51.8,30.29,SSE,148,2.0,5.0,64,0.00,,,0.00,Wunderground v.1.15,2013-01-22 16:58:00,
2013-01-22 11:04:00,63.8,51.8,30.29,SE,138,3.0,9.0,65,0.00,,,0.00,Wunderground v.1.15,2013-01-22 17:04:00,
2013-01-22 11:10:00,63.9,52.3,30.29,SSE,155,4.0,4.0,66,0.00,,,0.00,Wunderground v.1.15,2013-01-22 17:10:00,
2013-01-22 11:16:00,64.4,52.4,30.29,SE,133,3.0,9.0,65,0.00,,,0.00,Wunderground v.1.15,2013-01-22 17:16:00,
2013-01-22 11:22:00,64.6,52.1,30.28,South,173,4.0,9.0,64,0.00,,,0.00,Wunderground v.1.15,2013-01-22 17:22:00,
2013-01-22 11:28:00,64.9,52.4,30.28,SSE,148,5.0,9.0,64,0.00,,,0.00,Wunderground v.1.15,2013-01-22 17:28:00,
2013-01-22 11:33:00,65.0,52.5,30.28,ESE,111,5.0,9.0,64,0.00,,,0.00,Wunderground v.1.15,2013-01-22 17:33:00,
2013-01-22 11:40:00,65.2,52.3,30.28,South,181,3.0,9.0,63,0.00,,,0.00,Wunderground v.1.15,2013-01-22 17:40:00,
2013-01-22 11:46:00,65.3,52.8,30.27,ESE,122,4.0,9.0,64,0.00,,,0.00,Wunderground v.1.15,2013-01-22 17:46:00,
2013-01-22 11:52:00,65.8,52.4,30.27,East,96,4.0,9.0,62,0.00,,,0.00,Wunderground v.1.15,2013-01-22 17:52:00,
2013-01-22 11:58:00,66.2,52.3,30.26,WSW,243,4.0,9.0,61,0.00,,,0.00,Wunderground v.1.15,2013-01-22 17:58:00,
2013-01-22 12:04:00,66.6,52.7,30.26,SSW,208,4.0,11.0,61,0.00,,,0.00,Wunderground v.1.15,2013-01-22 18:04:00,
2013-01-22 12:10:00,66.6,52.7,30.25,SE,131,4.0,11.0,61,0.00,,,0.00,Wunderground v.1.15,2013-01-22 18:10:00,
2013-01-22 12:16:00,66.8,52.5,30.25,SW,226,5.0,11.0,60,0.00,,,0.00,Wunderground v.1.15,2013-01-22 18:16:00,
2013-01-22 12:22:00,67.3,52.5,30.25,West,260,5.0,11.0,59,0.00,,,0.00,Wunderground v.1.15,2013-01-22 18:22:00,
2013-01-22 12:28:00,67.2,51.9,30.25,SSE,152,6.0,11.0,58,0.00,,,0.00,Wunderground v.1.15,2013-01-22 18:28:00,
2013-01-22 12:34:00,67.4,52.1,30.24,South,176,6.0,11.0,58,0.00,,,0.00,Wunderground v.1.15,2013-01-22 18:34:00,
2013-01-22 12:40:00,66.9,51.6,30.24,SSE,168,6.0,6.0,58,0.00,,,0.00,Wunderground v.1.15,2013-01-22 18:40:00,
2013-01-22 12:46:00,66.9,52.1,30.24,SSE,160,7.0,11.0,59,0.00,,,0.00,Wunderground v.1.15,2013-01-22 18:46:00,
2013-01-22 12:52:00,67.6,52.8,30.23,South,187,5.0,11.0,59,0.00,,,0.00,Wunderground v.1.15,2013-01-22 18:52:00,
2013-01-22 12:58:00,68.1,52.8,30.22,SE,140,4.0,11.0,58,0.00,,,0.00,Wunderground v.1.15,2013-01-22 18:58:00,
2013-01-22 13:04:00,68.3,52.9,30.22,WSW,238,5.0,15.0,58,0.00,,,0.00,Wunderground v.1.15,2013-01-22 19:04:00,
2013-01-22 13:10:00,68.6,52.8,30.22,West,260,5.0,15.0,57,0.00,,,0.00,Wunderground v.1.15,2013-01-22 19:10:00,
2013-01-22 13:16:00,68.7,52.8,30.22,ESE,121,5.0,15.0,57,0.00,,,0.00,Wunderground v.1.15,2013-01-22 19:16:00,
2013-01-22 13:24:00,69.5,53.1,30.21,SW,231,4.0,7.0,56,0.00,,,0.00,Wunderground v.1.15,2013-01-22 19:24:00,
2013-01-22 13:30:00,69.6,52.7,30.21,West,260,4.0,15.0,55,0.00,,,0.00,Wunderground v.1.15,2013-01-22 19:30:00,
2013-01-22 13:36:00,69.5,51.6,30.21,East,96,5.0,15.0,53,0.00,,,0.00,Wunderground v.1.15,2013-01-22 19:36:00,
2013-01-22 13:42:00,69.6,52.2,30.20,SE,134,5.0,8.0,54,0.00,,,0.00,Wunderground v.1.15,2013-01-22 19:42:00,
2013-01-22 13:48:00,69.6,51.2,30.20,SW,229,4.0,15.0,52,0.00,,,0.00,Wunderground v.1.15,2013-01-22 19:48:00,
2013-01-22 13:53:00,69.9,52.0,30.20,SE,136,4.0,15.0,53,0.00,,,0.00,Wunderground v.1.15,2013-01-22 19:53:00,
2013-01-22 14:00:00,70.7,51.1,30.19,SSE,148,4.0,15.0,50,0.00,,,0.00,Wunderground v.1.15,2013-01-22 20:00:00,
2013-01-22 14:06:00,70.7,52.2,30.19,SE,138,4.0,15.0,52,0.00,,,0.00,Wunderground v.1.15,2013-01-22 20:06:00,
2013-01-22 14:12:00,70.1,52.2,30.19,SE,139,5.0,12.0,53,0.00,,,0.00,Wunderground v.1.15,2013-01-22 20:12:00,
2013-01-22 14:18:00,70.9,51.9,30.19,ESE,120,3.0,12.0,51,0.00,,,0.00,Wunderground v.1.15,2013-01-22 20:18:00,
2013-01-22 14:24:00,70.9,51.9,30.18,South,188,4.0,12.0,51,0.00,,,0.00,Wunderground v.1.15,2013-01-22 20:24:00,
2013-01-22 14:30:00,70.5,52.5,30.18,SSE,163,5.0,5.0,53,0.00,,,0.00,Wunderground v.1.15,2013-01-22 20:30:00,
2013-01-22 14:36:00,70.7,52.7,30.18,WSW,253,4.0,12.0,53,0.00,,,0.00,Wunderground v.1.15,2013-01-22 20:36:00,
2013-01-22 14:41:00,70.7,52.7,30.18,SSE,156,5.0,12.0,53,0.00,,,0.00,Wunderground v.1.15,2013-01-22 20:41:00,
2013-01-22 14:48:00,71.0,53.0,30.18,WSW,249,4.0,12.0,53,0.00,,,0.00,Wunderground v.1.15,2013-01-22 20:48:00,
2013-01-22 14:54:00,70.9,52.4,30.18,SE,135,5.0,12.0,52,0.00,,,0.00,Wunderground v.1.15,2013-01-22 20:54:00,
2013-01-22 15:00:00,70.7,52.7,30.18,ESE,114,5.0,12.0,53,0.00,,,0.00,Wunderground v.1.15,2013-01-22 21:00:00,
2013-01-22 15:06:00,71.0,53.0,30.18,WSW,248,4.0,12.0,53,0.00,,,0.00,Wunderground v.1.15,2013-01-22 21:06:00,
2013-01-22 15:12:00,71.2,53.7,30.18,SW,214,4.0,10.0,54,0.00,,,0.00,Wunderground v.1.15,2013-01-22 21:12:00,
2013-01-22 15:18:00,71.3,53.3,30.18,SE,128,4.0,10.0,53,0.00,,,0.00,Wunderground v.1.15,2013-01-22 21:18:00,
2013-01-22 15:24:00,70.6,53.1,30.17,WSW,246,5.0,10.0,54,0.00,,,0.00,Wunderground v.1.15,2013-01-22 21:24:00,
2013-01-22 15:30:00,71.0,53.5,30.17,SSE,155,4.0,4.0,54,0.00,,,0.00,Wunderground v.1.15,2013-01-22 21:30:00,
2013-01-22 15:36:00,71.4,52.9,30.17,SW,231,4.0,10.0,52,0.00,,,0.00,Wunderground v.1.15,2013-01-22 21:36:00,
2013-01-22 15:42:00,72.1,52.4,30.17,WSW,252,4.0,10.0,50,0.00,,,0.00,Wunderground v.1.15,2013-01-22 21:42:00,
2013-01-22 15:48:00,72.3,52.1,30.17,WSW,246,4.0,10.0,49,0.00,,,0.00,Wunderground v.1.15,2013-01-22 21:48:00,
2013-01-22 15:54:00,72.5,51.7,30.17,WSW,246,4.0,10.0,48,0.00,,,0.00,Wunderground v.1.15,2013-01-22 21:54:00,
2013-01-22 16:00:00,72.5,52.2,30.17,SSE,163,4.0,10.0,49,0.00,,,0.00,Wunderground v.1.15,2013-01-22 22:00:00,
2013-01-22 16:06:00,72.3,52.1,30.17,SE,145,5.0,12.0,49,0.00,,,0.00,Wunderground v.1.15,2013-01-22 22:06:00,
2013-01-22 16:12:00,72.2,52.5,30.17,SSW,205,4.0,12.0,50,0.00,,,0.00,Wunderground v.1.15,2013-01-22 22:12:00,
2013-01-22 16:18:00,71.8,52.2,30.17,SE,141,4.0,12.0,50,0.00,,,0.00,Wunderground v.1.15,2013-01-22 22:18:00,
2013-01-22 16:24:00,71.4,51.8,30.17,SSW,210,4.0,12.0,50,0.00,,,0.00,Wunderground v.1.15,2013-01-22 22:24:00,
2013-01-22 16:30:00,71.0,52.0,30.17,SE,143,4.0,12.0,51,0.00,,,0.00,Wunderground v.1.15,2013-01-22 22:30:00,
2013-01-22 16:36:00,71.0,52.0,30.17,SE,145,4.0,12.0,51,0.00,,,0.00,Wunderground v.1.15,2013-01-22 22:36:00,
2013-01-22 16:42:00,71.5,51.9,30.18,SW,233,4.0,12.0,50,0.00,,,0.00,Wunderground v.1.15,2013-01-22 22:42:00,
2013-01-22 16:48:00,71.7,52.1,30.18,SSE,163,3.0,12.0,50,0.00,,,0.00,Wunderground v.1.15,2013-01-22 22:48:00,
2013-01-22 16:54:00,71.8,51.6,30.18,WSW,245,2.0,12.0,49,0.00,,,0.00,Wunderground v.1.15,2013-01-22 22:54:00,
2013-01-22 17:00:00,71.2,51.6,30.17,SSW,200,3.0,12.0,50,0.00,,,0.00,Wunderground v.1.15,2013-01-22 23:00:00,
2013-01-22 17:06:00,71.3,51.7,30.18,SSE,162,3.0,12.0,50,0.00,,,0.00,Wunderground v.1.15,2013-01-22 23:06:00,
2013-01-22 17:12:00,70.9,51.3,30.18,SW,231,3.0,9.0,50,0.00,,,0.00,Wunderground v.1.15,2013-01-22 23:12:00,
2013-01-22 17:18:00,70.6,51.6,30.18,SSE,148,3.0,9.0,51,0.00,,,0.00,Wunderground v.1.15,2013-01-22 23:18:00,
2013-01-22 17:24:00,70.5,51.5,30.17,SE,136,3.0,9.0,51,0.00,,,0.00,Wunderground v.1.15,2013-01-22 23:24:00,
2013-01-22 17:30:00,70.6,51.1,30.18,SW,221,3.0,9.0,50,0.00,,,0.00,Wunderground v.1.15,2013-01-22 23:30:00,
2013-01-22 17:36:00,70.3,50.8,30.17,SSW,205,3.0,9.0,50,0.00,,,0.00,Wunderground v.1.15,2013-01-22 23:36:00,
2013-01-22 17:42:00,70.1,50.6,30.18,SE,136,3.0,9.0,50,0.00,,,0.00,Wunderground v.1.15,2013-01-22 23:42:00,
2013-01-22 17:48:00,69.8,50.9,30.18,South,183,3.0,9.0,51,0.00,,,0.00,Wunderground v.1.15,2013-01-22 23:48:00,
2013-01-22 17:54:00,69.4,50.5,30.18,South,169,3.0,9.0,51,0.00,,,0.00,Wunderground v.1.15,2013-01-22 23:54:00,
2013-01-22 18:00:00,69.1,50.2,30.18,SSE,168,3.0,9.0,51,0.00,,,0.00,Wunderground v.1.15,2013-01-23 00:00:00,
2013-01-22 18:06:00,68.6,49.7,30.18,SSE,152,2.0,10.0,51,0.00,,,0.00,Wunderground v.1.15,2013-01-23 00:06:00,
2013-01-22 18:12:00,68.3,50.0,30.18,SSE,149,2.0,10.0,52,0.00,,,0.00,Wunderground v.1.15,2013-01-23 00:12:00,
2013-01-22 18:18:00,67.9,49.6,30.18,SE,145,2.0,10.0,52,0.00,,,0.00,Wunderground v.1.15,2013-01-23 00:18:00,
2013-01-22 18:24:00,67.5,49.8,30.18,SE,139,2.0,10.0,53,0.00,,,0.00,Wunderground v.1.15,2013-01-23 00:24:00,
2013-01-22 18:30:00,67.2,49.5,30.18,SE,139,2.0,10.0,53,0.00,,,0.00,Wunderground v.1.15,2013-01-23 00:30:00,
2013-01-22 18:36:00,66.8,49.6,30.18,SE,132,2.0,10.0,54,0.00,,,0.00,Wunderground v.1.15,2013-01-23 00:36:00,
2013-01-22 18:42:00,66.4,49.7,30.18,SE,145,2.0,10.0,55,0.00,,,0.00,Wunderground v.1.15,2013-01-23 00:42:00,
2013-01-22 18:48:00,66.1,49.5,30.18,SE,136,2.0,10.0,55,0.00,,,0.00,Wunderground v.1.15,2013-01-23 00:48:00,
2013-01-22 18:54:00,65.8,49.7,30.18,SSE,147,3.0,10.0,56,0.00,,,0.00,Wunderground v.1.15,2013-01-23 00:54:00,
2013-01-22 19:00:00,65.5,49.4,30.18,SE,145,2.0,10.0,56,0.00,,,0.00,Wunderground v.1.15,2013-01-23 01:00:00,
2013-01-22 19:06:00,65.3,49.2,30.18,SSE,152,3.0,10.0,56,0.00,,,0.00,Wunderground v.1.15,2013-01-23 01:06:00,
2013-01-22 19:12:00,65.0,49.4,30.19,SSE,150,3.0,4.0,57,0.00,,,0.00,Wunderground v.1.15,2013-01-23 01:12:00,
2013-01-22 19:18:00,64.9,49.3,30.19,SE,141,3.0,4.0,57,0.00,,,0.00,Wunderground v.1.15,2013-01-23 01:18:00,
2013-01-22 19:24:00,64.7,49.1,30.19,SE,141,3.0,4.0,57,0.00,,,0.00,Wunderground v.1.15,2013-01-23 01:24:00,
2013-01-22 19:30:00,64.4,49.3,30.19,SE,138,3.0,4.0,58,0.00,,,0.00,Wunderground v.1.15,2013-01-23 01:30:00,
2013-01-22 19:36:00,64.3,49.2,30.19,SSE,156,3.0,4.0,58,0.00,,,0.00,Wunderground v.1.15,2013-01-23 01:36:00,
2013-01-22 19:42:00,64.1,49.0,30.19,SSE,158,3.0,4.0,58,0.00,,,0.00,Wunderground v.1.15,2013-01-23 01:42:00,
2013-01-22 19:48:00,64.0,49.4,30.19,SSE,162,4.0,4.0,59,0.00,,,0.00,Wunderground v.1.15,2013-01-23 01:48:00,
2013-01-22 19:54:00,63.8,49.2,30.19,SE,146,4.0,4.0,59,0.00,,,0.00,Wunderground v.1.15,2013-01-23 01:54:00,
2013-01-22 20:00:00,63.7,49.5,30.19,SE,124,3.0,5.0,60,0.00,,,0.00,Wunderground v.1.15,2013-01-23 02:00:00,
2013-01-22 20:06:00,63.6,49.5,30.19,SSE,155,4.0,8.0,60,0.00,,,0.00,Wunderground v.1.15,2013-01-23 02:06:00,
2013-01-22 20:12:00,63.4,49.7,30.19,ESE,114,4.0,7.0,61,0.00,,,0.00,Wunderground v.1.15,2013-01-23 02:12:00,
2013-01-22 20:18:00,63.3,50.1,30.19,SSE,156,4.0,7.0,62,0.00,,,0.00,Wunderground v.1.15,2013-01-23 02:18:00,
2013-01-22 20:24:00,63.0,49.8,30.20,SE,143,5.0,7.0,62,0.00,,,0.00,Wunderground v.1.15,2013-01-23 02:24:00,
2013-01-22 20:30:00,62.8,50.0,30.20,South,172,5.0,7.0,63,0.00,,,0.00,Wunderground v.1.15,2013-01-23 02:30:00,
2013-01-22 20:35:00,62.5,50.2,30.20,SE,132,4.0,7.0,64,0.00,,,0.00,Wunderground v.1.15,2013-01-23 02:35:00,
2013-01-22 20:42:00,62.2,50.3,30.20,SSE,158,5.0,6.0,65,0.00,,,0.00,Wunderground v.1.15,2013-01-23 02:42:00,
2013-01-22 20:48:00,62.0,50.1,30.20,SE,131,5.0,7.0,65,0.00,,,0.00,Wunderground v.1.15,2013-01-23 02:48:00,
2013-01-22 20:54:00,61.8,50.3,30.20,SE,143,5.0,7.0,66,0.00,,,0.00,Wunderground v.1.15,2013-01-23 02:54:00,
2013-01-22 20:59:00,61.6,50.1,30.21,SE,139,5.0,5.0,66,0.00,,,0.00,Wunderground v.1.15,2013-01-23 02:59:00,
2013-01-22 21:06:00,61.3,50.2,30.21,SE,131,5.0,11.0,67,0.00,,,0.00,Wunderground v.1.15,2013-01-23 03:06:00,
2013-01-22 21:12:00,61.1,50.1,30.21,SE,138,5.0,11.0,67,0.00,,,0.00,Wunderground v.1.15,2013-01-23 03:12:00,
2013-01-22 21:18:00,60.8,50.2,30.21,SSE,150,6.0,11.0,68,0.00,,,0.00,Wunderground v.1.15,2013-01-23 03:18:00,
2013-01-22 21:24:00,60.5,49.9,30.21,SSE,154,6.0,11.0,68,0.00,,,0.00,Wunderground v.1.15,2013-01-23 03:24:00,
2013-01-22 21:30:00,60.3,50.1,30.21,SSE,156,6.0,11.0,69,0.00,,,0.00,Wunderground v.1.15,2013-01-23 03:30:00,
2013-01-22 21:36:00,60.1,49.9,30.22,SE,139,5.0,11.0,69,0.00,,,0.00,Wunderground v.1.15,2013-01-23 03:36:00,
2013-01-22 21:44:00,59.6,49.8,30.22,SSE,150,5.0,11.0,70,0.00,,,0.00,Wunderground v.1.15,2013-01-23 03:44:00,
2013-01-22 21:50:00,59.3,49.9,30.22,SSE,164,4.0,11.0,71,0.00,,,0.00,Wunderground v.1.15,2013-01-23 03:50:00,
2013-01-22 21:56:00,59.1,50.1,30.22,SE,137,4.0,11.0,72,0.00,,,0.00,Wunderground v.1.15,2013-01-23 03:56:00,
2013-01-22 22:02:00,58.9,49.9,30.22,SSE,160,4.0,11.0,72,0.00,,,0.00,Wunderground v.1.15,2013-01-23 04:02:00,
2013-01-22 22:08:00,58.7,50.1,30.22,SE,143,5.0,11.0,73,0.00,,,0.00,Wunderground v.1.15,2013-01-23 04:08:00,
2013-01-22 22:14:00,58.6,50.3,30.23,SSE,163,5.0,10.0,74,0.00,,,0.00,Wunderground v.1.15,2013-01-23 04:14:00,
2013-01-22 22:20:00,58.2,50.3,30.23,SE,145,5.0,10.0,75,0.00,,,0.00,Wunderground v.1.15,2013-01-23 04:20:00,
2013-01-22 22:26:00,58.1,50.2,30.23,SE,143,5.0,10.0,75,0.00,,,0.00,Wunderground v.1.15,2013-01-23 04:26:00,
2013-01-22 22:32:00,57.8,50.3,30.23,SE,139,5.0,10.0,76,0.00,,,0.00,Wunderground v.1.15,2013-01-23 04:32:00,
2013-01-22 22:38:00,57.6,50.4,30.23,SSE,149,5.0,10.0,77,0.00,,,0.00,Wunderground v.1.15,2013-01-23 04:38:00,
2013-01-22 22:44:00,57.5,50.3,30.24,SSE,159,4.0,10.0,77,0.00,,,0.00,Wunderground v.1.15,2013-01-23 04:44:00,
2013-01-22 22:50:00,57.2,50.4,30.24,ESE,108,4.0,10.0,78,0.00,,,0.00,Wunderground v.1.15,2013-01-23 04:50:00,
2013-01-22 22:58:00,57.0,50.2,30.24,SSE,156,4.0,10.0,78,0.00,,,0.00,Wunderground v.1.15,2013-01-23 04:58:00,
2013-01-22 23:04:00,56.8,50.4,30.24,SSE,161,4.0,7.0,79,0.00,,,0.00,Wunderground v.1.15,2013-01-23 05:04:00,
2013-01-22 23:08:00,56.8,50.4,30.24,SE,139,4.0,7.0,79,0.00,,,0.00,Wunderground v.1.15,2013-01-23 05:08:00,
2013-01-22 23:14:00,56.7,50.6,30.24,SSE,153,4.0,7.0,80,0.00,,,0.00,Wunderground v.1.15,2013-01-23 05:14:00,
2013-01-22 23:20:00,56.5,50.4,30.24,SSE,156,4.0,4.0,80,0.00,,,0.00,Wunderground v.1.15,2013-01-23 05:20:00,
2013-01-22 23:26:00,56.4,50.3,30.24,SE,136,4.0,7.0,80,0.00,,,0.00,Wunderground v.1.15,2013-01-23 05:26:00,
2013-01-22 23:32:00,56.3,50.5,30.24,SSW,202,4.0,6.0,81,0.00,,,0.00,Wunderground v.1.15,2013-01-23 05:32:00,
2013-01-22 23:38:00,56.1,50.3,30.24,SSW,198,4.0,7.0,81,0.00,,,0.00,Wunderground v.1.15,2013-01-23 05:38:00,
2013-01-22 23:44:00,55.9,50.5,30.24,SE,143,3.0,7.0,82,0.00,,,0.00,Wunderground v.1.15,2013-01-23 05:44:00,
2013-01-22 23:50:00,55.7,50.3,30.24,SSE,155,3.0,7.0,82,0.00,,,0.00,Wunderground v.1.15,2013-01-23 05:50:00,
2013-01-22 23:56:00,55.6,50.5,30.24,SSE,154,2.0,7.0,83,0.00,,,0.00,Wunderground v.1.15,2013-01-23 05:56:00,